createdAt,value
2023-09-27T00:00:33.080Z,14.60
2023-09-27T00:03:22.653Z,16.20
2023-09-27T00:05:51.609Z,15.00
2023-09-27T00:08:21.178Z,14.50
2023-09-27T00:10:50.224Z,14.60
2023-09-27T00:13:19.022Z,14.60
2023-09-27T00:15:49.412Z,13.40
2023-09-27T00:18:18.123Z,13.40
2023-09-27T00:20:46.872Z,13.70
2023-09-27T00:23:16.010Z,14.40
2023-09-27T00:25:44.664Z,13.10
2023-09-27T00:28:13.297Z,14.40
2023-09-27T00:30:42.534Z,15.00
2023-09-27T00:33:11.163Z,14.80
2023-09-27T00:35:41.165Z,15.40
2023-09-27T00:38:12.043Z,13.20
2023-09-27T00:40:48.905Z,13.10
2023-09-27T00:43:32.761Z,12.80
2023-09-27T00:46:03.604Z,12.90
2023-09-27T00:48:34.239Z,12.50
2023-09-27T00:51:05.136Z,12.40
2023-09-27T00:53:35.617Z,13.00
2023-09-27T00:56:05.660Z,11.40
2023-09-27T00:58:38.283Z,12.70
2023-09-27T01:01:07.652Z,12.80
2023-09-27T01:03:36.570Z,12.40
2023-09-27T01:06:05.632Z,12.30
2023-09-27T01:08:34.583Z,12.70
2023-09-27T01:11:05.632Z,11.90
2023-09-27T01:13:34.675Z,11.90
2023-09-27T01:16:04.128Z,11.50
2023-09-27T01:18:32.755Z,12.30
2023-09-27T01:21:02.975Z,12.50
2023-09-27T01:23:32.091Z,11.50
2023-09-27T01:26:02.408Z,11.50
2023-09-27T01:28:33.102Z,10.70
2023-09-27T01:31:01.639Z,10.50
2023-09-27T01:33:30.951Z,10.50
2023-09-27T01:36:01.280Z,10.60
2023-09-27T01:40:59.054Z,10.20
2023-09-27T01:43:28.336Z,10.80
2023-09-27T01:45:56.901Z,10.60
2023-09-27T01:48:25.611Z,10.90
2023-09-27T01:50:57.258Z,10.80
2023-09-27T01:53:26.987Z,11.90
2023-09-27T01:55:56.156Z,11.10
2023-09-27T01:58:25.843Z,11.30
2023-09-27T02:00:54.681Z,13.60
2023-09-27T02:03:23.518Z,10.10
2023-09-27T02:05:54.292Z,11.90
2023-09-27T02:08:22.940Z,10.90
2023-09-27T02:10:53.974Z,10.80
2023-09-27T02:13:22.572Z,11.00
2023-09-27T02:15:51.137Z,10.00
2023-09-27T02:18:20.215Z,10.70
2023-09-27T02:20:48.772Z,10.50
2023-09-27T02:23:17.340Z,10.70
2023-09-27T02:25:46.399Z,11.40
2023-09-27T02:28:15.148Z,11.40
2023-09-27T02:30:43.982Z,11.30
2023-09-27T02:33:13.193Z,11.40
2023-09-27T02:35:41.826Z,10.90
2023-09-27T02:38:10.908Z,10.50
2023-09-27T02:40:41.102Z,10.80
2023-09-27T02:43:09.931Z,11.10
2023-09-27T02:45:38.896Z,9.40
2023-09-27T02:48:07.851Z,10.60
2023-09-27T02:50:36.516Z,11.30
2023-09-27T02:53:05.894Z,9.90
2023-09-27T02:55:35.155Z,11.70
2023-09-27T02:58:04.173Z,11.30
2023-09-27T03:00:35.507Z,10.90
2023-09-27T03:03:05.109Z,10.00
2023-09-27T03:05:37.075Z,10.20
2023-09-27T03:08:06.766Z,10.40
2023-09-27T03:10:40.360Z,14.10
2023-09-27T03:13:10.963Z,10.80
2023-09-27T03:18:08.746Z,13.30
2023-09-27T03:20:37.876Z,15.70
2023-09-27T03:23:06.543Z,15.90
2023-09-27T03:25:35.524Z,15.40
2023-09-27T03:28:04.682Z,14.80
2023-09-27T03:30:33.333Z,13.40
2023-09-27T03:33:04.019Z,12.90
2023-09-27T03:35:33.342Z,13.70
2023-09-27T03:38:01.973Z,13.00
2023-09-27T03:40:31.157Z,16.40
2023-09-27T03:43:00.131Z,14.90
2023-09-27T03:45:31.987Z,14.60
2023-09-27T03:48:04.350Z,15.00
2023-09-27T03:50:33.905Z,16.30
2023-09-27T03:53:02.680Z,20.60
2023-09-27T03:55:31.653Z,16.30
2023-09-27T03:58:00.327Z,11.20
2023-09-27T04:00:29.116Z,16.30
2023-09-27T04:02:58.754Z,15.70
2023-09-27T04:05:28.226Z,14.80
2023-09-27T04:07:57.448Z,15.30
2023-09-27T04:10:26.996Z,27.80
2023-09-27T04:12:56.061Z,22.30
2023-09-27T04:15:25.049Z,11.90
2023-09-27T04:17:53.882Z,15.10
2023-09-27T04:20:23.266Z,18.20
2023-09-27T04:22:51.913Z,12.10
2023-09-27T04:25:22.358Z,11.50
2023-09-27T04:27:51.923Z,11.90
2023-09-27T04:32:53.202Z,11.30
2023-09-27T04:35:23.047Z,13.60
2023-09-27T04:37:52.145Z,11.70
2023-09-27T04:40:21.323Z,16.10
2023-09-27T04:42:50.471Z,13.20
2023-09-27T04:45:19.481Z,14.40
2023-09-27T04:47:48.185Z,26.30
2023-09-27T04:50:17.485Z,22.80
2023-09-27T04:52:46.719Z,12.40
2023-09-27T04:55:16.412Z,15.90
2023-09-27T04:57:45.349Z,16.70
2023-09-27T05:00:21.271Z,13.80
2023-09-27T05:02:54.015Z,12.10
2023-09-27T05:05:23.529Z,13.80
2023-09-27T05:08:06.509Z,16.60
2023-09-27T05:10:46.299Z,14.60
2023-09-27T05:13:16.640Z,14.10
2023-09-27T05:15:51.287Z,12.70
2023-09-27T05:18:24.182Z,14.70
2023-09-27T05:20:53.041Z,13.90
2023-09-27T05:23:24.999Z,13.20
2023-09-27T05:25:53.590Z,13.70
2023-09-27T05:28:22.247Z,12.20
2023-09-27T05:30:53.299Z,12.40
2023-09-27T05:35:51.696Z,12.10
2023-09-27T05:38:21.993Z,12.40
2023-09-27T05:43:19.445Z,12.60
2023-09-27T05:45:50.204Z,10.00
2023-09-27T05:48:18.929Z,12.00
2023-09-27T05:50:51.630Z,12.20
2023-09-27T05:53:21.078Z,13.70
2023-09-27T05:55:50.036Z,12.90
2023-09-27T05:58:20.355Z,13.30
2023-09-27T06:00:49.518Z,13.90
2023-09-27T06:03:18.688Z,15.80
2023-09-27T06:05:47.809Z,14.30
2023-09-27T06:08:16.755Z,14.20
2023-09-27T06:10:45.509Z,18.90
2023-09-27T06:13:14.355Z,13.60
2023-09-27T06:15:43.520Z,13.60
2023-09-27T06:18:13.804Z,13.80
2023-09-27T06:20:43.378Z,13.80
2023-09-27T06:23:12.417Z,13.80
2023-09-27T06:25:45.009Z,14.70
2023-09-27T06:28:17.338Z,13.90
2023-09-27T06:30:45.877Z,11.20
2023-09-27T06:33:15.670Z,11.50
2023-09-27T06:35:44.357Z,10.60
2023-09-27T06:38:15.158Z,9.70
2023-09-27T06:40:44.285Z,15.20
2023-09-27T06:43:12.854Z,10.30
2023-09-27T06:45:41.952Z,9.00
2023-09-27T06:48:11.323Z,9.20
2023-09-27T06:50:43.462Z,9.20
2023-09-27T06:53:23.519Z,9.70
2023-09-27T06:55:55.493Z,10.80
2023-09-27T06:58:24.957Z,10.40
2023-09-27T07:00:54.093Z,12.30
2023-09-27T07:03:27.003Z,11.30
2023-09-27T07:05:56.261Z,13.00
2023-09-27T07:08:24.947Z,11.50
2023-09-27T07:10:53.520Z,10.80
2023-09-27T07:13:22.692Z,10.00
2023-09-27T07:15:52.292Z,10.50
2023-09-27T07:18:21.348Z,10.60
2023-09-27T07:20:51.840Z,11.30
2023-09-27T07:23:21.955Z,10.30
2023-09-27T07:25:51.079Z,11.00
2023-09-27T07:28:19.682Z,10.10
2023-09-27T07:30:48.626Z,9.30
2023-09-27T07:33:19.009Z,10.10
2023-09-27T07:35:52.607Z,10.10
2023-09-27T07:38:22.249Z,8.30
2023-09-27T07:40:50.857Z,8.20
2023-09-27T07:43:20.094Z,6.80
2023-09-27T07:45:49.339Z,6.20
2023-09-27T07:48:23.022Z,7.50
2023-09-27T07:50:55.129Z,7.40
2023-09-27T07:53:24.447Z,6.20
2023-09-27T07:55:55.242Z,6.10
2023-09-27T07:58:33.340Z,6.70
2023-09-27T08:01:12.096Z,6.90
2023-09-27T08:03:46.966Z,7.60
2023-09-27T08:06:24.982Z,7.20
2023-09-27T08:09:00.642Z,6.40
2023-09-27T08:11:34.257Z,6.30
2023-09-27T08:14:06.358Z,6.20
2023-09-27T08:16:37.739Z,6.20
2023-09-27T08:19:11.631Z,6.70
2023-09-27T08:21:42.331Z,6.60
2023-09-27T08:24:11.962Z,7.30
2023-09-27T08:26:41.542Z,5.70
2023-09-27T08:29:11.722Z,6.50
2023-09-27T08:31:42.158Z,7.00
2023-09-27T08:34:15.420Z,7.00
2023-09-27T08:36:45.533Z,6.60
2023-09-27T08:39:16.314Z,7.50
2023-09-27T08:41:45.772Z,8.10
2023-09-27T08:44:16.179Z,6.60
2023-09-27T08:46:47.556Z,7.70
2023-09-27T08:49:20.965Z,7.10
2023-09-27T08:51:53.069Z,6.20
2023-09-27T08:54:34.154Z,6.70
2023-09-27T08:57:19.300Z,7.10
2023-09-27T09:02:32.880Z,7.00
2023-09-27T09:05:07.648Z,7.00
2023-09-27T09:07:40.261Z,6.90
2023-09-27T09:10:17.701Z,7.70
2023-09-27T09:12:48.690Z,7.60
2023-09-27T09:15:42.997Z,6.70
2023-09-27T09:18:16.581Z,7.10
2023-09-27T09:21:01.523Z,6.90
2023-09-27T09:23:35.870Z,6.20
2023-09-27T09:26:09.443Z,5.90
2023-09-27T09:28:57.946Z,6.50
2023-09-27T09:31:32.524Z,6.40
2023-09-27T09:34:04.625Z,6.40
2023-09-27T09:36:33.816Z,6.20
2023-09-27T09:39:18.859Z,5.70
2023-09-27T09:41:49.433Z,6.00
2023-09-27T09:44:21.290Z,6.10
2023-09-27T09:46:51.153Z,5.60
2023-09-27T09:49:20.344Z,6.20
2023-09-27T09:51:51.070Z,6.20
2023-09-27T09:55:11.096Z,5.80
2023-09-27T09:57:52.723Z,5.60
2023-09-27T10:00:28.772Z,6.00
2023-09-27T10:03:06.273Z,5.70
2023-09-27T10:05:39.851Z,5.40
2023-09-27T10:08:09.401Z,6.10
2023-09-27T10:13:10.912Z,6.60
2023-09-27T10:15:42.307Z,6.50
2023-09-27T10:18:38.629Z,5.80
2023-09-27T10:21:10.968Z,6.40
2023-09-27T10:23:48.732Z,6.40
2023-09-27T10:26:27.992Z,5.10
2023-09-27T10:29:06.115Z,5.60
2023-09-27T10:31:40.348Z,5.20
2023-09-27T10:34:27.268Z,4.70
2023-09-27T10:37:17.268Z,5.10
2023-09-27T10:40:20.973Z,6.50
2023-09-27T10:42:50.430Z,7.20
2023-09-27T10:45:19.141Z,9.00
2023-09-27T10:47:51.342Z,5.90
2023-09-27T10:50:30.916Z,5.50
2023-09-27T10:55:39.882Z,6.20
2023-09-27T10:58:09.031Z,5.40
2023-09-27T11:00:53.057Z,5.60
2023-09-27T11:03:22.828Z,5.10
2023-09-27T11:05:52.887Z,5.40
2023-09-27T11:08:24.260Z,4.10
2023-09-27T11:10:54.566Z,4.50
2023-09-27T11:13:23.472Z,5.00
2023-09-27T11:15:52.495Z,5.20
2023-09-27T11:18:21.432Z,5.40
2023-09-27T11:20:51.273Z,4.40
2023-09-27T11:23:22.426Z,4.50
2023-09-27T11:25:51.620Z,4.70
2023-09-27T11:28:20.218Z,4.70
2023-09-27T11:30:58.271Z,4.40
2023-09-27T11:33:34.130Z,4.80
2023-09-27T11:36:07.048Z,5.80
2023-09-27T11:38:36.401Z,5.30
2023-09-27T11:41:15.814Z,5.90
2023-09-27T11:43:45.549Z,5.80
2023-09-27T11:46:29.485Z,5.10
2023-09-27T11:49:09.559Z,5.30
2023-09-27T11:51:39.028Z,5.30
2023-09-27T11:54:08.086Z,6.00
2023-09-27T11:56:37.897Z,5.00
2023-09-27T11:59:07.165Z,5.40
2023-09-27T12:01:36.039Z,5.00
2023-09-27T12:04:06.638Z,5.30
2023-09-27T12:06:38.052Z,5.30
2023-09-27T12:09:06.855Z,5.40
2023-09-27T12:11:36.684Z,5.90
2023-09-27T12:16:34.480Z,5.50
2023-09-27T12:19:06.131Z,5.10
2023-09-27T12:21:39.462Z,6.10
2023-09-27T12:24:09.377Z,6.00
2023-09-27T12:26:38.340Z,4.50
2023-09-27T12:29:07.958Z,4.90
2023-09-27T12:31:36.589Z,4.60
2023-09-27T12:34:05.448Z,5.20
2023-09-27T12:36:34.188Z,5.90
2023-09-27T12:39:04.083Z,5.60
2023-09-27T12:41:33.115Z,4.90
2023-09-27T12:44:02.308Z,5.30
2023-09-27T12:46:31.159Z,5.10
2023-09-27T12:49:00.741Z,5.30
2023-09-27T12:51:38.991Z,4.70
2023-09-27T12:54:16.481Z,4.70
2023-09-27T12:56:45.137Z,4.50
2023-09-27T12:59:13.733Z,4.80
2023-09-27T13:01:43.048Z,5.00
2023-09-27T13:04:12.294Z,4.80
2023-09-27T13:06:41.008Z,4.60
2023-09-27T13:09:11.751Z,4.60
2023-09-27T13:11:40.328Z,4.30
2023-09-27T13:14:10.057Z,7.30
2023-09-27T13:16:39.506Z,4.30
2023-09-27T13:19:09.560Z,4.80
2023-09-27T13:21:38.369Z,6.00
2023-09-27T13:24:09.958Z,5.10
2023-09-27T13:26:38.662Z,4.50
2023-09-27T13:31:38.247Z,4.80
2023-09-27T13:34:11.766Z,4.90
2023-09-27T13:36:41.791Z,5.00
2023-09-27T13:39:18.827Z,4.40
2023-09-27T13:41:48.390Z,4.50
2023-09-27T13:44:17.139Z,5.40
2023-09-27T13:46:45.827Z,4.70
2023-09-27T13:49:22.117Z,5.10
2023-09-27T13:51:50.723Z,4.60
2023-09-27T13:54:22.926Z,4.20
2023-09-27T13:56:51.743Z,4.20
2023-09-27T13:59:23.994Z,4.70
2023-09-27T14:01:56.794Z,4.80
2023-09-27T14:04:26.075Z,6.30
2023-09-27T14:06:55.603Z,5.10
2023-09-27T14:09:24.444Z,4.90
2023-09-27T14:11:53.973Z,4.80
2023-09-27T14:14:23.149Z,5.20
2023-09-27T14:16:51.823Z,6.10
2023-09-27T14:19:22.013Z,5.20
2023-09-27T14:21:50.829Z,5.40
2023-09-27T14:24:20.614Z,4.60
2023-09-27T14:26:51.620Z,4.60
2023-09-27T14:29:29.735Z,4.90
2023-09-27T14:32:09.084Z,4.50
2023-09-27T14:37:09.894Z,4.90
2023-09-27T14:39:38.837Z,8.20
2023-09-27T14:42:11.249Z,9.20
2023-09-27T14:44:40.222Z,10.70
2023-09-27T14:47:09.181Z,6.80
2023-09-27T14:49:41.113Z,5.30
2023-09-27T14:52:09.799Z,6.40
2023-09-27T14:54:38.426Z,5.20
2023-09-27T14:57:08.401Z,5.90
2023-09-27T15:02:05.741Z,5.50
2023-09-27T15:04:34.774Z,5.30
2023-09-27T15:07:04.201Z,6.70
2023-09-27T15:09:32.716Z,4.80
2023-09-27T15:12:03.034Z,5.50
2023-09-27T15:14:31.642Z,5.50
2023-09-27T15:17:02.659Z,18.20
2023-09-27T15:19:31.881Z,7.40
2023-09-27T15:22:00.748Z,7.00
2023-09-27T15:24:29.956Z,5.80
2023-09-27T15:26:59.218Z,4.80
2023-09-27T15:29:28.291Z,6.10
2023-09-27T15:31:56.917Z,5.40
2023-09-27T15:34:25.956Z,6.50
2023-09-27T15:36:56.094Z,13.40
2023-09-27T15:39:25.695Z,15.00
2023-09-27T15:41:55.069Z,10.40
2023-09-27T15:44:23.722Z,9.00
2023-09-27T15:46:53.033Z,6.40
2023-09-27T15:49:21.951Z,5.40
2023-09-27T15:51:50.566Z,5.50
2023-09-27T15:54:19.717Z,5.00
2023-09-27T15:56:48.627Z,5.50
2023-09-27T15:59:18.096Z,4.90
2023-09-27T16:01:47.365Z,6.00
2023-09-27T16:04:16.450Z,8.60
2023-09-27T16:06:45.090Z,14.30
2023-09-27T16:09:16.873Z,7.60
2023-09-27T16:11:46.229Z,6.30
2023-09-27T16:14:15.535Z,6.70
2023-09-27T16:16:44.476Z,6.50
2023-09-27T16:19:13.502Z,6.70
2023-09-27T16:21:43.138Z,8.60
2023-09-27T16:24:13.167Z,6.90
2023-09-27T16:26:42.798Z,7.20
2023-09-27T16:29:11.811Z,7.30
2023-09-27T16:31:44.028Z,7.10
2023-09-27T16:34:13.465Z,7.40
2023-09-27T16:36:43.999Z,6.50
2023-09-27T16:39:15.419Z,7.30
2023-09-27T16:41:44.138Z,6.50
2023-09-27T16:44:13.105Z,6.20
2023-09-27T16:46:41.837Z,6.80
2023-09-27T16:49:11.182Z,6.70
2023-09-27T16:51:39.983Z,7.10
2023-09-27T16:54:10.933Z,6.20
2023-09-27T16:56:39.711Z,9.80
2023-09-27T16:59:08.440Z,7.20
2023-09-27T17:01:39.485Z,7.10
2023-09-27T17:04:21.972Z,6.60
2023-09-27T17:07:20.431Z,6.40
2023-09-27T17:10:13.599Z,6.90
2023-09-27T17:13:04.595Z,6.60
2023-09-27T17:15:56.107Z,7.10
2023-09-27T17:18:59.866Z,6.90
2023-09-27T17:21:38.494Z,7.10
2023-09-27T17:24:21.826Z,7.40
2023-09-27T17:27:22.612Z,10.40
2023-09-27T17:30:14.209Z,9.30
2023-09-27T17:32:56.192Z,10.50
2023-09-27T17:35:37.427Z,12.60
2023-09-27T17:38:33.882Z,12.90
2023-09-27T17:41:28.908Z,17.00
2023-09-27T17:44:14.706Z,15.90
2023-09-27T17:46:46.820Z,17.50
2023-09-27T17:49:16.981Z,18.00
2023-09-27T17:51:46.563Z,19.20
2023-09-27T17:54:15.127Z,20.10
2023-09-27T17:56:44.178Z,21.50
2023-09-27T17:59:14.951Z,19.40
2023-09-27T18:01:44.238Z,19.00
2023-09-27T18:04:13.252Z,18.20
2023-09-27T18:06:42.002Z,16.90
2023-09-27T18:09:10.600Z,17.40
2023-09-27T18:11:39.467Z,19.20
2023-09-27T18:14:08.219Z,18.00
2023-09-27T18:16:36.970Z,17.80
2023-09-27T18:19:05.731Z,16.50
2023-09-27T18:21:34.847Z,18.00
2023-09-27T18:24:04.640Z,17.10
2023-09-27T18:26:33.529Z,15.30
2023-09-27T18:29:05.810Z,15.40
2023-09-27T18:31:34.823Z,15.40
2023-09-27T18:34:03.889Z,15.20
2023-09-27T18:36:34.607Z,14.10
2023-09-27T18:41:31.867Z,13.30
2023-09-27T18:44:00.849Z,13.20
2023-09-27T18:46:29.994Z,12.20
2023-09-27T18:48:58.739Z,11.40
2023-09-27T18:51:27.810Z,12.20
2023-09-27T18:53:56.559Z,12.40
2023-09-27T18:56:25.171Z,13.00
2023-09-27T18:58:59.936Z,11.10
2023-09-27T19:01:30.215Z,11.10
2023-09-27T19:04:03.026Z,10.30
2023-09-27T19:06:33.696Z,9.90
2023-09-27T19:09:05.643Z,10.40
2023-09-27T19:11:37.216Z,10.60
2023-09-27T19:14:07.187Z,9.80
2023-09-27T19:16:36.711Z,9.70
2023-09-27T19:19:08.446Z,9.80
2023-09-27T19:21:37.680Z,9.20
2023-09-27T19:24:06.887Z,9.30
2023-09-27T19:26:41.212Z,9.40
2023-09-27T19:29:10.341Z,8.90
2023-09-27T19:31:39.439Z,9.70
2023-09-27T19:34:08.717Z,10.10
2023-09-27T19:36:42.408Z,10.10
2023-09-27T19:39:15.988Z,9.80
2023-09-27T19:41:45.472Z,10.80
2023-09-27T19:44:14.392Z,10.30
2023-09-27T19:46:44.242Z,10.80
2023-09-27T19:51:43.394Z,10.40
2023-09-27T19:54:12.003Z,10.10
2023-09-27T19:56:43.599Z,10.00
2023-09-27T19:59:12.420Z,10.00
2023-09-27T20:01:41.326Z,9.40
2023-09-27T20:04:13.007Z,9.70
2023-09-27T20:06:43.327Z,10.00
2023-09-27T20:09:12.478Z,9.80
2023-09-27T20:11:43.467Z,10.50
2023-09-27T20:14:11.999Z,10.30
2023-09-27T20:16:41.130Z,11.90
2023-09-27T20:19:10.647Z,11.70
2023-09-27T20:21:39.384Z,10.60
2023-09-27T20:24:08.543Z,10.00
2023-09-27T20:26:37.274Z,12.30
2023-09-27T20:29:06.035Z,10.60
2023-09-27T20:31:35.517Z,10.60
2023-09-27T20:34:06.066Z,10.60
2023-09-27T20:36:34.655Z,10.20
2023-09-27T20:39:04.130Z,10.60
2023-09-27T20:41:32.724Z,10.90
2023-09-27T20:44:01.310Z,10.90
2023-09-27T20:46:33.775Z,10.90
2023-09-27T20:49:03.317Z,11.00
2023-09-27T20:51:32.514Z,11.60
2023-09-27T20:54:01.583Z,12.50
2023-09-27T20:56:30.608Z,13.20
2023-09-27T20:58:59.922Z,10.60
2023-09-27T21:01:37.088Z,10.60
2023-09-27T21:04:06.525Z,11.50
2023-09-27T21:06:35.591Z,9.80
2023-09-27T21:09:05.843Z,12.50
2023-09-27T21:11:34.722Z,9.90
2023-09-27T21:14:04.149Z,10.10
2023-09-27T21:16:33.957Z,9.40
2023-09-27T21:19:03.489Z,8.20
2023-09-27T21:21:33.386Z,7.60
2023-09-27T21:24:02.028Z,9.50
2023-09-27T21:26:31.196Z,12.00
2023-09-27T21:29:00.247Z,8.90
2023-09-27T21:31:29.043Z,10.30
2023-09-27T21:34:00.490Z,11.20
2023-09-27T21:36:29.167Z,10.40
2023-09-27T21:38:57.901Z,11.10
2023-09-27T21:41:27.107Z,11.00
2023-09-27T21:43:55.908Z,10.30
2023-09-27T21:46:24.611Z,11.60
2023-09-27T21:48:54.826Z,11.90
2023-09-27T21:51:24.175Z,11.90
2023-09-27T21:53:52.912Z,13.00
2023-09-27T21:56:21.994Z,12.40
2023-09-27T21:58:51.778Z,12.80
2023-09-27T22:01:23.469Z,12.80
2023-09-27T22:03:52.897Z,11.90
2023-09-27T22:06:21.716Z,11.80
2023-09-27T22:08:50.679Z,11.80
2023-09-27T22:11:20.105Z,11.10
2023-09-27T22:13:51.726Z,10.70
2023-09-27T22:18:52.588Z,10.70
2023-09-27T22:21:38.880Z,11.40
2023-09-27T22:24:22.531Z,11.20
2023-09-27T22:26:52.814Z,11.90
2023-09-27T22:29:22.053Z,10.70
2023-09-27T22:31:50.697Z,9.50
2023-09-27T22:34:38.845Z,10.20
2023-09-27T22:37:10.782Z,9.50
2023-09-27T22:39:41.822Z,8.30
2023-09-27T22:42:21.915Z,10.50
2023-09-27T22:44:51.170Z,10.20
2023-09-27T22:47:20.235Z,9.50
2023-09-27T22:49:49.596Z,9.40
2023-09-27T22:52:18.445Z,10.00
2023-09-27T22:54:57.263Z,8.80
2023-09-27T22:57:26.754Z,9.40
2023-09-27T22:59:55.884Z,9.70
2023-09-27T23:02:24.415Z,9.20
2023-09-27T23:04:53.396Z,9.10
2023-09-27T23:07:24.109Z,8.80
2023-09-27T23:10:04.673Z,8.40
2023-09-27T23:12:37.419Z,8.80
2023-09-27T23:15:13.764Z,7.80
2023-09-27T23:18:01.881Z,8.30
2023-09-27T23:20:32.373Z,7.90
2023-09-27T23:23:08.817Z,7.30
2023-09-27T23:25:47.316Z,7.80
2023-09-27T23:28:39.713Z,7.70
2023-09-27T23:31:12.023Z,8.10
2023-09-27T23:33:45.331Z,8.20
2023-09-27T23:36:25.159Z,7.70
2023-09-27T23:38:59.111Z,7.40
2023-09-27T23:41:31.433Z,7.50
2023-09-27T23:44:10.091Z,7.90
2023-09-27T23:46:40.119Z,7.90
2023-09-27T23:49:17.952Z,7.90
2023-09-27T23:51:47.440Z,7.50
2023-09-27T23:54:19.832Z,7.50
2023-09-27T23:56:49.452Z,7.70
2023-09-27T23:59:31.512Z,8.00
